Time;durP1;ratioP1;P1;durP2;ratioP2;P2;SDS_P1;SDS_P2;PMS_P1;PMS_P2;Temp;Humidity;BMP_temperature;BMP_pressure;BME280_temperature;BME280_humidity;BME280_pressure;Samples;Min_cycle;Max_cycle;Signal;HPM_P1;HPM_P2
2022/01/31 00:02:12;;;;;;;;;;;;;;;2.48;67.17;95197.25;4996028;28;1031;-49
2022/01/31 00:04:39;;;;;;;;;;;;;;;2.40;68.08;95202.25;4995419;28;1918;-49
2022/01/31 00:07:05;;;;;;;;;;;;;;;2.49;67.86;95211.31;4995341;28;1013;-50
2022/01/31 00:09:31;;;;;;;;;;;;;;;2.61;67.45;95206.94;4994977;28;1002;-49
2022/01/31 00:12:05;;;;;;;;;;;;;;;2.64;67.37;95210.19;4995181;28;1094;-49
2022/01/31 00:14:45;;;;;;;;;;;;;;;2.59;67.30;95199.13;4995245;28;1132;-49
2022/01/31 00:17:12;;;;;;;;;;;;;;;2.58;67.47;95199.22;4995351;28;1046;-49
2022/01/31 00:19:39;;;;;;;;;;;;;;;2.67;66.74;95207.31;4995088;28;1105;-49
2022/01/31 00:22:06;;;;;;;;;;;;;;;2.72;66.85;95205.19;4995341;28;1006;-49
2022/01/31 00:24:33;;;;;;;;;;;;;;;2.39;67.39;95212.91;4995160;28;1910;-49
2022/01/31 00:27:00;;;;;;;;;;;;;;;2.23;68.02;95207.88;4995055;28;1035;-49
2022/01/31 00:29:26;;;;;;;;;;;;;;;2.07;68.48;95195.78;4994941;28;1089;-49
2022/01/31 00:31:52;;;;;;;;;;;;;;;2.08;68.57;95201.91;4995055;28;1208;-49
2022/01/31 00:34:18;;;;;;;;;;;;;;;2.08;68.98;95200.09;4994699;28;1093;-49
2022/01/31 00:36:44;;;;;;;;;;;;;;;2.16;68.01;95202.19;4995094;28;1070;-49
2022/01/31 00:39:10;;;;;;;;;;;;;;;2.28;67.48;95211.06;4995016;28;994;-49
2022/01/31 00:41:37;;;;;;;;;;;;;;;2.24;68.06;95209.56;4995067;28;966;-49
2022/01/31 00:44:18;;;;;;;;;;;;;;;2.21;67.79;95202.72;4994122;28;1914;-50
2022/01/31 00:46:51;;;;;;;;;;;;;;;2.20;67.86;95203.69;4994653;28;1018;-49
2022/01/31 00:49:35;;;;;;;;;;;;;;;2.11;68.45;95204.31;4994883;28;982;-49
2022/01/31 00:52:02;;;;;;;;;;;;;;;2.14;68.32;95207.59;4975308;28;1056;-49
2022/01/31 00:54:28;;;;;;;;;;;;;;;2.22;68.03;95191.22;4975119;28;966;-49
2022/01/31 00:56:55;;;;;;;;;;;;;;;2.14;68.79;95201.47;4975216;28;1009;-49
2022/01/31 00:59:22;;;;;;;;;;;;;;;2.17;68.57;95205.69;4974933;28;1042;-49
2022/01/31 01:01:48;;;;;;;;;;;;;;;2.15;68.95;95190.81;4975033;28;1034;-49
2022/01/31 01:04:14;;;;;;;;;;;;;;;1.97;69.69;95196.53;4975063;28;1935;-49
2022/01/31 01:06:40;;;;;;;;;;;;;;;2.04;69.05;95201.25;4975087;28;975;-49
2022/01/31 01:09:07;;;;;;;;;;;;;;;2.09;69.32;95196.50;4974673;28;1097;-49
2022/01/31 01:11:34;;;;;;;;;;;;;;;2.11;68.62;95191.13;4975024;28;1051;-49
2022/01/31 01:14:00;;;;;;;;;;;;;;;2.06;68.96;95188.81;4974433;28;1050;-49
2022/01/31 01:16:26;;;;;;;;;;;;;;;2.14;67.55;95177.72;4974879;28;1042;-49
2022/01/31 01:18:52;;;;;;;;;;;;;;;2.14;68.28;95178.56;4973465;28;1042;-49
2022/01/31 01:21:18;;;;;;;;;;;;;;;2.17;68.53;95174.88;4974067;28;978;-49
2022/01/31 01:23:44;;;;;;;;;;;;;;;2.21;68.24;95168.41;4974783;28;1057;-49
2022/01/31 01:26:10;;;;;;;;;;;;;;;2.29;67.67;95171.34;4974527;28;2017;-49
2022/01/31 01:28:36;;;;;;;;;;;;;;;2.31;67.26;95169.44;4974643;28;1021;-48
2022/01/31 01:31:02;;;;;;;;;;;;;;;2.29;67.11;95176.63;4974642;28;1046;-49
2022/01/31 01:33:28;;;;;;;;;;;;;;;2.25;67.62;95174.31;4974611;28;1034;-49
2022/01/31 01:35:55;;;;;;;;;;;;;;;2.12;67.27;95172.53;4974398;28;970;-50
2022/01/31 01:38:27;;;;;;;;;;;;;;;2.00;68.04;95177.88;4974579;28;1054;-50
2022/01/31 01:40:55;;;;;;;;;;;;;;;1.99;68.13;95179.63;4974822;28;1030;-49
2022/01/31 01:43:21;;;;;;;;;;;;;;;2.12;67.51;95190.16;4974259;28;1089;-49
2022/01/31 01:45:49;;;;;;;;;;;;;;;2.21;67.24;95184.25;4974399;28;1910;-49
2022/01/31 01:48:15;;;;;;;;;;;;;;;2.16;67.16;95191.63;4974353;28;1041;-49
2022/01/31 01:50:41;;;;;;;;;;;;;;;2.13;66.67;95184.78;4984673;28;1163;-49
2022/01/31 01:53:07;;;;;;;;;;;;;;;2.00;67.09;95183.16;4993770;28;1037;-49
2022/01/31 01:55:34;;;;;;;;;;;;;;;1.90;68.72;95189.06;4993598;28;1045;-49
2022/01/31 01:58:00;;;;;;;;;;;;;;;1.92;67.35;95178.41;4993347;28;1034;-49
2022/01/31 02:00:27;;;;;;;;;;;;;;;2.01;67.32;95183.03;4993771;28;1061;-49
2022/01/31 02:02:54;;;;;;;;;;;;;;;2.05;67.08;95181.00;4993735;28;1062;-49
2022/01/31 02:05:21;;;;;;;;;;;;;;;2.10;66.60;95182.38;4993345;28;1988;-49
2022/01/31 02:07:47;;;;;;;;;;;;;;;2.01;67.77;95177.75;4993664;28;1050;-49
2022/01/31 02:10:14;;;;;;;;;;;;;;;2.07;67.61;95187.03;4993452;28;1021;-49
2022/01/31 02:12:45;;;;;;;;;;;;;;;2.14;66.95;95183.84;4993696;28;1009;-49
2022/01/31 02:15:12;;;;;;;;;;;;;;;1.97;67.57;95175.44;4993840;28;1034;-49
2022/01/31 02:17:38;;;;;;;;;;;;;;;1.98;66.85;95183.25;4993735;28;1008;-49
2022/01/31 02:20:06;;;;;;;;;;;;;;;1.94;67.43;95181.78;4993206;28;1035;-49
2022/01/31 02:22:32;;;;;;;;;;;;;;;2.10;66.34;95173.63;4993646;28;1050;-49
2022/01/31 02:24:58;;;;;;;;;;;;;;;2.21;65.63;95175.50;4993131;28;1899;-49
2022/01/31 02:27:29;;;;;;;;;;;;;;;2.20;65.95;95165.88;4993671;28;1236;-49
2022/01/31 02:29:55;;;;;;;;;;;;;;;2.06;67.01;95169.50;5008450;28;1117;-49
2022/01/31 02:32:22;;;;;;;;;;;;;;;2.05;66.93;95178.38;4994189;28;1035;-49
2022/01/31 02:34:49;;;;;;;;;;;;;;;2.00;66.74;95172.59;4997262;28;979;-49
2022/01/31 02:37:16;;;;;;;;;;;;;;;2.10;66.28;95171.81;4996994;28;987;-49
2022/01/31 02:39:42;;;;;;;;;;;;;;;2.14;66.07;95177.72;4997076;28;1054;-49
2022/01/31 02:42:08;;;;;;;;;;;;;;;2.13;66.27;95170.78;4997070;28;1017;-49
2022/01/31 02:44:38;;;;;;;;;;;;;;;2.15;65.22;95174.97;4997057;28;2013;-50
2022/01/31 02:47:10;;;;;;;;;;;;;;;2.24;64.99;95165.56;4996959;28;973;-50
2022/01/31 02:49:45;;;;;;;;;;;;;;;2.40;62.71;95162.66;4997118;28;1163;-49
2022/01/31 02:52:13;;;;;;;;;;;;;;;2.54;61.53;95159.00;4996705;28;1250;-49
2022/01/31 02:54:39;;;;;;;;;;;;;;;2.56;59.91;95167.66;4996860;28;1018;-49
2022/01/31 02:57:05;;;;;;;;;;;;;;;2.59;60.48;95166.59;5011809;28;1211;-49
2022/01/31 02:59:31;;;;;;;;;;;;;;;2.58;60.39;95175.47;4996741;28;1109;-49
2022/01/31 03:01:58;;;;;;;;;;;;;;;2.59;60.62;95177.16;4996602;28;974;-49
2022/01/31 03:04:24;;;;;;;;;;;;;;;2.59;59.50;95171.88;4996779;28;1883;-49
2022/01/31 03:06:53;;;;;;;;;;;;;;;2.59;59.79;95161.31;4996266;28;1224;-49
2022/01/31 03:09:19;;;;;;;;;;;;;;;2.58;59.12;95171.06;4996833;28;1030;-49
2022/01/31 03:11:45;;;;;;;;;;;;;;;2.58;58.72;95175.47;4996310;28;931;-49
2022/01/31 03:14:11;;;;;;;;;;;;;;;2.63;58.47;95165.41;4996612;28;1052;-50
2022/01/31 03:16:41;;;;;;;;;;;;;;;2.68;58.09;95165.94;4996456;28;1601;-49
2022/01/31 03:19:07;;;;;;;;;;;;;;;2.66;58.18;95168.69;4996406;28;1030;-50
2022/01/31 03:21:34;;;;;;;;;;;;;;;2.57;58.45;95165.88;4996075;28;1043;-49
2022/01/31 03:24:00;;;;;;;;;;;;;;;2.56;58.50;95165.00;4996304;28;1023;-50
2022/01/31 03:26:26;;;;;;;;;;;;;;;2.55;57.95;95165.97;4996270;28;1987;-49
2022/01/31 03:28:53;;;;;;;;;;;;;;;2.54;57.96;95166.94;4996306;28;973;-49
2022/01/31 03:31:21;;;;;;;;;;;;;;;2.56;57.60;95157.09;4996093;28;1049;-49
2022/01/31 03:33:48;;;;;;;;;;;;;;;2.57;57.82;95157.97;4996162;28;1025;-49
2022/01/31 03:36:14;;;;;;;;;;;;;;;2.56;57.92;95154.44;4995783;28;1225;-49
2022/01/31 03:38:42;;;;;;;;;;;;;;;2.57;57.46;95155.31;4996314;28;991;-49
2022/01/31 03:41:09;;;;;;;;;;;;;;;2.50;58.04;95153.13;4996014;28;1021;-49
2022/01/31 03:43:35;;;;;;;;;;;;;;;2.49;57.18;95151.44;4995310;28;975;-50
2022/01/31 03:46:01;;;;;;;;;;;;;;;2.47;57.90;95150.72;4995360;28;1922;-49
2022/01/31 03:48:28;;;;;;;;;;;;;;;2.49;57.10;95156.72;4994550;28;1030;-49
2022/01/31 03:50:56;;;;;;;;;;;;;;;2.44;57.83;95158.84;4996188;28;1163;-49
2022/01/31 03:53:22;;;;;;;;;;;;;;;2.43;57.55;95161.59;4995858;28;978;-49
2022/01/31 03:55:48;;;;;;;;;;;;;;;2.42;57.70;95168.66;5010937;28;1045;-49
2022/01/31 03:58:14;;;;;;;;;;;;;;;2.42;57.56;95168.66;5010566;28;1046;-49
2022/01/31 04:00:40;;;;;;;;;;;;;;;2.40;57.27;95173.22;4995627;28;998;-50
2022/01/31 04:03:07;;;;;;;;;;;;;;;2.38;57.96;95169.84;4995381;28;991;-49
2022/01/31 04:05:33;;;;;;;;;;;;;;;2.34;57.78;95168.38;4995736;28;1911;-49
2022/01/31 04:07:59;;;;;;;;;;;;;;;2.34;57.86;95174.50;4995442;28;983;-49
2022/01/31 04:10:26;;;;;;;;;;;;;;;2.39;57.32;95168.91;4995711;28;970;-49
2022/01/31 04:12:52;;;;;;;;;;;;;;;2.38;58.42;95176.94;4994993;28;1090;-49
2022/01/31 04:15:18;;;;;;;;;;;;;;;2.28;59.28;95172.31;4995311;28;1090;-48
2022/01/31 04:17:45;;;;;;;;;;;;;;;2.21;60.03;95173.69;4993845;28;1181;-49
2022/01/31 04:20:11;;;;;;;;;;;;;;;2.18;60.23;95178.34;4995462;28;986;-49
2022/01/31 04:22:44;;;;;;;;;;;;;;;2.14;60.19;95183.00;4995139;28;1053;-49
2022/01/31 04:25:27;;;;;;;;;;;;;;;2.14;59.71;95162.75;4995393;28;1911;-49
2022/01/31 04:28:01;;;;;;;;;;;;;;;2.18;58.77;95167.78;4995009;28;970;-49
2022/01/31 04:30:28;;;;;;;;;;;;;;;2.18;59.44;95178.34;4995168;28;983;-49
2022/01/31 04:32:54;;;;;;;;;;;;;;;2.14;60.10;95177.72;4995039;28;1077;-49
2022/01/31 04:35:20;;;;;;;;;;;;;;;2.19;58.79;95172.97;4994901;28;1047;-49
2022/01/31 04:37:46;;;;;;;;;;;;;;;2.24;58.43;95173.50;5009935;28;977;-49
2022/01/31 04:40:14;;;;;;;;;;;;;;;2.26;57.98;95176.03;4995098;28;935;-49
2022/01/31 04:42:43;;;;;;;;;;;;;;;2.29;57.54;95173.13;4994527;28;1039;-49
2022/01/31 04:45:09;;;;;;;;;;;;;;;2.25;57.56;95169.03;4994631;28;1989;-50
2022/01/31 04:47:36;;;;;;;;;;;;;;;2.21;57.95;95172.84;4994572;28;1292;-49
2022/01/31 04:50:02;;;;;;;;;;;;;;;2.24;57.63;95172.63;4994716;28;1155;-50
2022/01/31 04:52:28;;;;;;;;;;;;;;;2.28;57.64;95167.03;4994682;28;1048;-49
2022/01/31 04:54:54;;;;;;;;;;;;;;;2.30;57.40;95170.41;4994576;28;1057;-49
2022/01/31 04:57:20;;;;;;;;;;;;;;;2.09;57.97;95171.94;4994491;28;936;-49
2022/01/31 04:59:48;;;;;;;;;;;;;;;1.97;57.57;95172.78;4994499;28;987;-49
2022/01/31 05:02:14;;;;;;;;;;;;;;;1.84;58.16;95173.69;4994756;28;974;-49
2022/01/31 05:04:40;;;;;;;;;;;;;;;1.68;58.51;95171.25;4994220;28;1910;-49
2022/01/31 05:07:06;;;;;;;;;;;;;;;1.48;59.32;95169.13;4994470;28;993;-49
2022/01/31 05:09:32;;;;;;;;;;;;;;;1.42;60.41;95169.56;4994415;28;990;-49
2022/01/31 05:11:59;;;;;;;;;;;;;;;1.39;60.81;95170.63;4993105;28;1524;-49
2022/01/31 05:14:25;;;;;;;;;;;;;;;1.42;60.67;95166.94;4994060;28;1050;-49
2022/01/31 05:16:51;;;;;;;;;;;;;;;1.48;60.84;95162.09;4994249;28;1026;-49
2022/01/31 05:19:17;;;;;;;;;;;;;;;1.27;60.40;95159.16;4994092;28;1042;-49
2022/01/31 05:21:43;;;;;;;;;;;;;;;1.14;61.62;95160.94;4994208;28;1090;-49
2022/01/31 05:24:10;;;;;;;;;;;;;;;1.13;61.47;95160.06;4994054;28;934;-49
2022/01/31 05:26:36;;;;;;;;;;;;;;;1.24;61.30;95155.88;4994154;28;1950;-49
2022/01/31 05:29:02;;;;;;;;;;;;;;;1.14;62.33;95158.28;4993802;28;1089;-49
2022/01/31 05:31:28;;;;;;;;;;;;;;;1.10;62.28;95160.28;4994037;28;994;-49
2022/01/31 05:33:54;;;;;;;;;;;;;;;0.99;61.82;95157.53;4992736;28;974;-49
2022/01/31 05:36:21;;;;;;;;;;;;;;;0.85;61.95;95161.06;4994252;28;1101;-49
2022/01/31 05:38:47;;;;;;;;;;;;;;;0.86;62.40;95168.03;4993876;28;983;-49
2022/01/31 05:41:18;;;;;;;;;;;;;;;0.92;62.32;95159.72;4994054;28;1057;-49
2022/01/31 05:43:47;;;;;;;;;;;;;;;0.90;62.92;95163.41;4993434;28;1460;-49
2022/01/31 05:46:14;;;;;;;;;;;;;;;0.94;62.00;95165.72;4993699;28;1910;-49
2022/01/31 05:48:40;;;;;;;;;;;;;;;1.08;61.99;95174.47;4993590;28;1042;-49
2022/01/31 05:51:12;;;;;;;;;;;;;;;1.11;62.28;95174.28;4993841;28;1167;-49
2022/01/31 05:53:39;;;;;;;;;;;;;;;1.09;62.79;95170.91;4993798;28;1034;-49
2022/01/31 05:56:05;;;;;;;;;;;;;;;1.03;62.52;95168.69;4993651;28;1137;-49
2022/01/31 05:58:31;;;;;;;;;;;;;;;1.01;63.34;95160.06;4993594;28;1129;-49
2022/01/31 06:00:57;;;;;;;;;;;;;;;1.04;63.79;95159.84;4993620;28;1070;-49
2022/01/31 06:03:23;;;;;;;;;;;;;;;0.96;63.76;95163.81;4993679;28;1106;-49
2022/01/31 06:05:49;;;;;;;;;;;;;;;0.95;63.67;95159.53;4993566;28;1914;-49
2022/01/31 06:08:15;;;;;;;;;;;;;;;0.92;63.64;95151.81;4995957;28;1038;-49
2022/01/31 06:10:44;;;;;;;;;;;;;;;1.01;62.92;95158.28;4997626;28;1051;-49
2022/01/31 06:13:10;;;;;;;;;;;;;;;1.13;62.92;95164.50;4997701;28;975;-49
2022/01/31 06:15:36;;;;;;;;;;;;;;;1.41;61.48;95150.28;4997749;28;1013;-49
2022/01/31 06:18:02;;;;;;;;;;;;;;;1.41;61.81;95155.56;4997465;28;1042;-49
2022/01/31 06:20:28;;;;;;;;;;;;;;;1.73;60.59;95157.75;4997446;28;951;-49
2022/01/31 06:22:54;;;;;;;;;;;;;;;4.85;53.44;95162.34;4997464;28;967;-49
2022/01/31 06:25:21;;;;;;;;;;;;;;;7.56;45.71;95183.97;4997220;28;1914;-50
2022/01/31 06:27:47;;;;;;;;;;;;;;;9.25;41.31;95180.34;4997540;28;1054;-50
2022/01/31 06:30:13;;;;;;;;;;;;;;;9.43;40.62;95188.31;4997395;28;978;-49
2022/01/31 06:32:40;;;;;;;;;;;;;;;8.68;41.62;95173.41;4997451;28;1051;-49
2022/01/31 06:35:06;;;;;;;;;;;;;;;7.29;44.73;95176.72;4997046;28;1042;-49
2022/01/31 06:37:32;;;;;;;;;;;;;;;10.96;38.11;95171.72;4997852;28;1045;-49
2022/01/31 06:39:58;;;;;;;;;;;;;;;13.12;33.08;95175.66;4996962;28;2011;-46
2022/01/31 06:42:24;;;;;;;;;;;;;;;11.71;34.90;95182.38;4997024;28;1070;-47
2022/01/31 06:44:50;;;;;;;;;;;;;;;9.93;37.48;95163.69;4996816;28;1977;-47
2022/01/31 06:47:18;;;;;;;;;;;;;;;7.13;44.56;95172.81;4997039;28;1109;-47
2022/01/31 06:49:44;;;;;;;;;;;;;;;5.23;49.21;95167.09;4996839;28;1163;-47
2022/01/31 06:52:10;;;;;;;;;;;;;;;6.05;47.37;95157.56;4995908;28;1120;-47
2022/01/31 06:54:36;;;;;;;;;;;;;;;5.04;49.34;95157.19;4996677;28;979;-48
2022/01/31 06:57:04;;;;;;;;;;;;;;;6.60;47.42;95151.88;4997034;28;998;-48
2022/01/31 06:59:30;;;;;;;;;;;;;;;7.69;43.96;95144.59;4996853;28;1043;-48
2022/01/31 07:01:56;;;;;;;;;;;;;;;9.37;41.21;95141.75;4996856;28;1053;-48
2022/01/31 07:04:22;;;;;;;;;;;;;;;10.92;38.11;95132.94;4996561;28;1993;-48
2022/01/31 07:06:48;;;;;;;;;;;;;;;12.60;34.43;95134.16;4996729;28;1053;-48
2022/01/31 07:09:14;;;;;;;;;;;;;;;13.71;31.61;95136.69;4996535;28;1034;-48
2022/01/31 07:11:42;;;;;;;;;;;;;;;15.98;28.60;95143.16;4996542;28;1094;-49
2022/01/31 07:14:30;;;;;;;;;;;;;;;18.61;26.33;95142.78;4996246;28;1062;-49
2022/01/31 07:17:00;;;;;;;;;;;;;;;19.78;24.04;95137.38;4996546;28;1151;-49
2022/01/31 07:19:28;;;;;;;;;;;;;;;20.90;22.25;95131.19;5010084;28;1057;-50
2022/01/31 07:21:54;;;;;;;;;;;;;;;22.64;20.06;95130.41;4996248;28;1104;-50
2022/01/31 07:27:02;;;;;;;;;;;;;;;22.37;19.38;95138.22;4996279;28;1082;-50
2022/01/31 07:29:31;;;;;;;;;;;;;;;20.83;20.40;95137.53;4996163;28;1869;-50
2022/01/31 07:31:57;;;;;;;;;;;;;;;19.87;21.70;95139.59;4996083;28;925;-50
2022/01/31 07:34:24;;;;;;;;;;;;;;;19.66;21.68;95126.34;4996081;28;1021;-50
2022/01/31 07:36:51;;;;;;;;;;;;;;;19.76;21.22;95120.47;4995931;28;1059;-49
2022/01/31 07:39:17;;;;;;;;;;;;;;;19.78;21.74;95118.38;4996254;28;1080;-49
2022/01/31 07:41:44;;;;;;;;;;;;;;;19.22;22.30;95114.50;4996069;28;994;-49
2022/01/31 07:44:10;;;;;;;;;;;;;;;19.49;21.55;95102.47;4995948;28;1290;-50
2022/01/31 07:46:37;;;;;;;;;;;;;;;19.64;21.87;95106.75;4995673;28;1906;-49
2022/01/31 07:49:04;;;;;;;;;;;;;;;21.47;19.85;95104.56;4995845;28;962;-50
2022/01/31 07:51:30;;;;;;;;;;;;;;;22.14;19.13;95098.13;4995870;28;1219;-49
2022/01/31 07:53:56;;;;;;;;;;;;;;;21.00;19.82;95102.44;4995921;28;1050;-49
2022/01/31 07:56:22;;;;;;;;;;;;;;;20.57;20.37;95102.47;4995605;28;986;-49
2022/01/31 07:58:48;;;;;;;;;;;;;;;20.79;20.18;95103.72;4995763;28;1074;-49
2022/01/31 08:01:14;;;;;;;;;;;;;;;21.72;19.69;95100.88;4995672;28;1021;-49
2022/01/31 08:03:41;;;;;;;;;;;;;;;20.75;19.80;95090.81;4995533;28;1185;-49
2022/01/31 08:06:07;;;;;;;;;;;;;;;20.03;20.71;95085.81;4995518;28;1982;-49
2022/01/31 08:08:34;;;;;;;;;;;;;;;20.42;20.74;95081.91;4995798;28;1033;-49
2022/01/31 08:11:02;;;;;;;;;;;;;;;20.95;20.76;95072.38;4995433;28;990;-49
2022/01/31 08:13:28;;;;;;;;;;;;;;;19.00;22.14;95073.31;4995284;28;1134;-49
2022/01/31 08:16:09;;;;;;;;;;;;;;;17.13;23.72;95068.00;4995177;28;1128;-49
2022/01/31 08:18:37;;;;;;;;;;;;;;;17.37;22.91;95074.72;4995745;28;978;-48
2022/01/31 08:21:03;;;;;;;;;;;;;;;14.94;24.20;95074.31;4995321;28;955;-49
2022/01/31 08:23:29;;;;;;;;;;;;;;;12.68;27.67;95075.09;4995548;28;1056;-48
2022/01/31 08:25:59;;;;;;;;;;;;;;;11.27;30.67;95069.44;4995071;28;1918;-48
2022/01/31 08:28:33;;;;;;;;;;;;;;;11.27;30.99;95077.47;4995335;28;968;-48
2022/01/31 08:31:07;;;;;;;;;;;;;;;11.08;29.52;95068.75;4994416;28;983;-48
2022/01/31 08:33:40;;;;;;;;;;;;;;;11.68;29.15;95051.47;4995288;28;972;-48
2022/01/31 08:36:07;;;;;;;;;;;;;;;13.01;29.07;95053.47;4995023;28;1061;-48
2022/01/31 08:38:33;;;;;;;;;;;;;;;13.47;27.64;95053.47;4995158;28;1062;-48
2022/01/31 08:41:00;;;;;;;;;;;;;;;13.69;27.55;95056.28;4994793;28;1101;-48
2022/01/31 08:43:26;;;;;;;;;;;;;;;13.03;28.30;95050.56;4993534;28;968;-48
2022/01/31 08:45:55;;;;;;;;;;;;;;;12.69;27.86;95063.38;4994353;28;1985;-48
2022/01/31 08:48:21;;;;;;;;;;;;;;;11.91;29.98;95077.56;4995041;28;1093;-48
2022/01/31 08:50:47;;;;;;;;;;;;;;;12.60;28.69;95083.22;4994918;28;1187;-48
2022/01/31 08:53:13;;;;;;;;;;;;;;;14.26;26.67;95076.34;4994795;28;952;-48
2022/01/31 08:55:45;;;;;;;;;;;;;;;15.62;24.06;95084.75;4994648;28;1207;-48
2022/01/31 08:58:11;;;;;;;;;;;;;;;16.93;22.18;95082.28;4994682;28;1199;-48
2022/01/31 09:00:37;;;;;;;;;;;;;;;18.37;20.98;95082.88;4994643;28;1080;-49
2022/01/31 09:05:39;;;;;;;;;;;;;;;19.85;20.06;95075.75;4994302;28;1910;-49
2022/01/31 09:08:05;;;;;;;;;;;;;;;21.10;19.06;95065.75;4994522;28;970;-49
2022/01/31 09:10:32;;;;;;;;;;;;;;;22.33;18.04;95058.88;4994315;28;1069;-49
2022/01/31 09:12:58;;;;;;;;;;;;;;;23.85;16.58;95066.09;4994468;28;1052;-49
2022/01/31 09:15:24;;;;;;;;;;;;;;;24.75;15.52;95062.31;4994577;28;1069;-49
2022/01/31 09:17:50;;;;;;;;;;;;;;;24.47;15.72;95059.69;4994232;28;1037;-49
2022/01/31 09:20:16;;;;;;;;;;;;;;;24.94;15.40;95051.09;4994227;28;1039;-49
2022/01/31 09:22:43;;;;;;;;;;;;;;;25.93;13.92;95045.66;4994074;28;932;-50
2022/01/31 09:25:14;;;;;;;;;;;;;;;26.34;13.59;95046.00;4993999;28;1966;-50
2022/01/31 09:27:41;;;;;;;;;;;;;;;26.98;13.86;95032.16;4994265;28;978;-50
2022/01/31 09:30:09;;;;;;;;;;;;;;;26.53;13.81;95028.03;4994448;28;1006;-50
2022/01/31 09:32:35;;;;;;;;;;;;;;;27.04;13.21;95019.28;4993974;28;1065;-50
2022/01/31 09:35:02;;;;;;;;;;;;;;;28.50;12.38;95023.66;4994143;28;977;-50
2022/01/31 09:37:28;;;;;;;;;;;;;;;28.59;12.51;95022.03;4993865;28;1040;-50
2022/01/31 09:40:02;;;;;;;;;;;;;;;28.39;12.12;95016.53;4993835;28;1017;-51
2022/01/31 09:42:35;;;;;;;;;;;;;;;28.87;11.69;94997.72;4992923;28;1041;-50
2022/01/31 09:48:37;;;;;;;;;;;;;;;28.08;12.33;94990.97;4495556;28;2033;-50
2022/01/31 09:51:03;;;;;;;;;;;;;;;28.62;12.31;94984.88;4993859;28;1214;-50
2022/01/31 09:53:30;;;;;;;;;;;;;;;29.39;11.91;94979.91;4993861;28;1062;-50
2022/01/31 09:55:56;;;;;;;;;;;;;;;28.94;12.14;94965.25;4993707;28;1993;-50
2022/01/31 09:58:26;;;;;;;;;;;;;;;29.10;11.50;94954.16;4993723;28;1129;-50
2022/01/31 10:01:12;;;;;;;;;;;;;;;28.70;11.87;94939.47;4993487;28;1047;-50
2022/01/31 10:03:52;;;;;;;;;;;;;;;28.65;12.56;94936.72;4993933;28;1049;-50
2022/01/31 10:06:23;;;;;;;;;;;;;;;28.90;11.09;94930.31;4993683;28;1076;-50
2022/01/31 10:09:08;;;;;;;;;;;;;;;28.73;11.92;94930.66;4993719;28;1053;-50
2022/01/31 10:11:43;;;;;;;;;;;;;;;27.69;11.86;94931.88;4993536;28;1113;-50
2022/01/31 10:17:04;;;;;;;;;;;;;;;24.15;14.96;94893.72;4993275;28;1049;-50
2022/01/31 10:19:37;;;;;;;;;;;;;;;21.88;16.59;94879.78;4993544;28;1074;-49
2022/01/31 10:22:05;;;;;;;;;;;;;;;20.19;17.51;94872.75;4993282;28;1109;-49
2022/01/31 10:24:33;;;;;;;;;;;;;;;16.74;20.92;94872.44;4993679;28;1061;-49
2022/01/31 10:27:16;;;;;;;;;;;;;;;14.99;22.22;94880.75;4993403;28;966;-48
2022/01/31 10:29:43;;;;;;;;;;;;;;;13.86;23.14;94863.47;4993514;28;1017;-48
2022/01/31 10:32:11;;;;;;;;;;;;;;;13.91;23.51;94854.84;4993283;28;1074;-48
2022/01/31 10:34:45;;;;;;;;;;;;;;;13.68;24.21;94845.06;4993379;28;1910;-48
2022/01/31 10:37:13;;;;;;;;;;;;;;;13.36;24.25;94839.06;4993211;28;1026;-48
2022/01/31 10:45:35;;;;;;;;;;;;;;;12.66;22.79;94827.69;4993570;28;1050;-47
2022/01/31 10:54:24;;;;;;;;;;;;;;;13.40;24.79;94800.09;4994785;28;1298;-48
2022/01/31 10:56:52;;;;;;;;;;;;;;;13.44;24.57;94797.84;4996827;28;975;-48
2022/01/31 10:59:19;;;;;;;;;;;;;;;13.36;23.42;94789.91;4996800;28;1038;-48
2022/01/31 11:01:47;;;;;;;;;;;;;;;13.11;25.53;94781.28;4996684;28;1073;-48
2022/01/31 11:04:15;;;;;;;;;;;;;;;12.69;24.23;94764.78;4996821;28;988;-48
2022/01/31 11:06:45;;;;;;;;;;;;;;;11.66;24.88;94760.75;4996943;28;1056;-47
2022/01/31 11:09:14;;;;;;;;;;;;;;;11.14;25.39;94757.69;4996489;28;1083;-48
2022/01/31 11:11:41;;;;;;;;;;;;;;;10.55;25.84;94754.56;4996547;28;966;-47
2022/01/31 11:14:08;;;;;;;;;;;;;;;10.75;26.73;94757.66;4996457;28;1049;-48
2022/01/31 11:16:35;;;;;;;;;;;;;;;10.69;26.56;94743.16;4996597;28;1958;-47
2022/01/31 11:19:06;;;;;;;;;;;;;;;10.62;27.40;94742.16;4996370;28;1133;-47
2022/01/31 11:21:34;;;;;;;;;;;;;;;10.53;27.63;94738.69;4996501;28;986;-48
2022/01/31 11:24:02;;;;;;;;;;;;;;;10.46;27.72;94721.66;4996249;28;1038;-48
2022/01/31 11:26:35;;;;;;;;;;;;;;;10.44;27.36;94717.50;4996376;28;1054;-48
2022/01/31 11:29:02;;;;;;;;;;;;;;;10.44;29.63;94714.84;4996304;28;1017;-48
2022/01/31 11:31:28;;;;;;;;;;;;;;;10.42;28.03;94712.31;4996456;28;1133;-48
2022/01/31 11:33:58;;;;;;;;;;;;;;;10.40;28.04;94710.84;4995979;28;1047;-48
2022/01/31 11:36:24;;;;;;;;;;;;;;;10.33;26.58;94706.16;4996284;28;1991;-48
2022/01/31 11:38:51;;;;;;;;;;;;;;;10.15;27.47;94702.84;4995949;28;965;-48
2022/01/31 11:41:18;;;;;;;;;;;;;;;9.82;28.61;94692.16;4996069;28;1086;-49
2022/01/31 11:43:51;;;;;;;;;;;;;;;9.92;28.14;94676.81;4995760;28;990;-48
2022/01/31 11:46:22;;;;;;;;;;;;;;;10.18;29.17;94681.09;4996283;28;1059;-49
2022/01/31 11:48:52;;;;;;;;;;;;;;;10.02;29.11;94683.81;4995591;28;1395;-49
2022/01/31 11:51:19;;;;;;;;;;;;;;;10.06;28.29;94677.13;4995915;28;1159;-49
2022/01/31 11:53:45;;;;;;;;;;;;;;;9.90;27.88;94676.16;4995530;28;1033;-49
2022/01/31 11:56:17;;;;;;;;;;;;;;;9.80;29.10;94667.47;4996005;28;1058;-49
2022/01/31 11:58:45;;;;;;;;;;;;;;;9.87;27.23;94657.78;4995750;28;983;-48
2022/01/31 12:01:11;;;;;;;;;;;;;;;9.82;28.38;94648.63;4995784;28;1380;-49
2022/01/31 12:03:49;;;;;;;;;;;;;;;10.06;29.56;94640.56;4995541;28;1050;-49
2022/01/31 12:06:19;;;;;;;;;;;;;;;10.11;27.67;94627.53;4994858;28;1892;-49
2022/01/31 12:08:46;;;;;;;;;;;;;;;10.09;29.19;94626.03;4995642;28;1066;-49
2022/01/31 12:11:17;;;;;;;;;;;;;;;10.02;30.19;94638.44;4995728;28;1020;-49
2022/01/31 12:13:45;;;;;;;;;;;;;;;9.70;29.24;94630.28;4995238;28;963;-49
2022/01/31 12:16:41;;;;;;;;;;;;;;;9.68;29.59;94626.94;4995392;28;1121;-49
2022/01/31 12:19:34;;;;;;;;;;;;;;;9.65;30.06;94616.59;4995166;28;1054;-49
2022/01/31 12:22:02;;;;;;;;;;;;;;;9.13;30.42;94615.09;4995503;28;1008;-49
2022/01/31 12:24:37;;;;;;;;;;;;;;;8.89;30.80;94610.56;4995128;28;1083;-49
2022/01/31 12:27:08;;;;;;;;;;;;;;;8.68;31.51;94613.69;4995020;28;1076;-48
2022/01/31 12:29:36;;;;;;;;;;;;;;;8.71;32.02;94605.38;4995226;28;1074;-48
2022/01/31 12:32:17;;;;;;;;;;;;;;;8.79;30.71;94610.72;4995249;28;1005;-49
2022/01/31 12:34:48;;;;;;;;;;;;;;;8.87;31.79;94604.56;4994990;28;1098;-49
2022/01/31 12:37:22;;;;;;;;;;;;;;;9.05;31.29;94604.44;4995129;28;990;-49
2022/01/31 12:39:57;;;;;;;;;;;;;;;9.02;31.25;94594.09;4994869;28;1049;-49
2022/01/31 12:42:49;;;;;;;;;;;;;;;8.84;32.61;94585.41;4994961;28;974;-49
2022/01/31 12:45:18;;;;;;;;;;;;;;;8.67;31.59;94576.53;4994654;28;1990;-49
2022/01/31 12:48:02;;;;;;;;;;;;;;;8.78;31.35;94571.75;4994720;28;1210;-49
2022/01/31 12:50:28;;;;;;;;;;;;;;;8.65;32.17;94568.72;4994862;28;1143;-49
2022/01/31 12:52:54;;;;;;;;;;;;;;;8.68;32.83;94573.72;4994828;28;1058;-49
2022/01/31 12:55:22;;;;;;;;;;;;;;;8.69;32.47;94554.06;4994535;28;1101;-49
2022/01/31 12:57:49;;;;;;;;;;;;;;;8.59;32.58;94556.03;4994599;28;1045;-49
2022/01/31 13:00:15;;;;;;;;;;;;;;;8.59;33.13;94553.38;4994435;28;1061;-49
2022/01/31 13:02:48;;;;;;;;;;;;;;;8.81;32.76;94540.44;4994474;28;974;-49
2022/01/31 13:05:14;;;;;;;;;;;;;;;8.94;33.10;94546.09;4994480;28;1906;-49
2022/01/31 13:07:40;;;;;;;;;;;;;;;8.84;32.66;94532.94;4994439;28;1055;-49
2022/01/31 13:10:09;;;;;;;;;;;;;;;8.50;33.04;94539.22;4994219;28;1117;-49
2022/01/31 13:12:36;;;;;;;;;;;;;;;8.33;33.69;94535.66;4994317;28;975;-49
2022/01/31 13:15:03;;;;;;;;;;;;;;;8.37;33.81;94530.81;4993948;28;1057;-49
2022/01/31 13:17:29;;;;;;;;;;;;;;;8.49;33.49;94529.53;4994561;28;998;-49
2022/01/31 13:19:57;;;;;;;;;;;;;;;8.42;33.89;94527.69;4994280;28;959;-49
2022/01/31 13:22:39;;;;;;;;;;;;;;;8.21;33.60;94524.47;4994510;28;927;-49
2022/01/31 13:25:07;;;;;;;;;;;;;;;8.27;34.13;94527.44;4993875;28;1907;-49
2022/01/31 13:27:35;;;;;;;;;;;;;;;8.22;34.20;94533.28;4994214;28;1021;-49
2022/01/31 13:30:03;;;;;;;;;;;;;;;8.26;34.21;94533.78;4994030;28;1017;-49
2022/01/31 13:32:34;;;;;;;;;;;;;;;8.12;34.45;94533.41;4994265;28;1035;-49
2022/01/31 13:35:02;;;;;;;;;;;;;;;8.18;34.48;94531.94;4993831;28;1069;-49